createdAt,value
2019-06-07T00:00:56.370Z,12.20
2019-06-07T00:02:00.779Z,12.20
2019-06-07T00:03:09.264Z,12.20
2019-06-07T00:04:13.645Z,12.20
2019-06-07T00:05:20.000Z,12.20
2019-06-07T00:06:25.684Z,12.20
2019-06-07T00:07:31.152Z,12.20
2019-06-07T00:08:35.567Z,12.20
2019-06-07T00:09:40.631Z,12.20
2019-06-07T00:10:45.105Z,12.20
2019-06-07T00:11:50.096Z,12.30
2019-06-07T00:12:54.435Z,12.20
2019-06-07T00:13:59.498Z,12.30
2019-06-07T00:15:04.011Z,12.30
2019-06-07T00:16:11.221Z,12.30
2019-06-07T00:17:17.188Z,12.40
2019-06-07T00:18:25.996Z,12.40
2019-06-07T00:19:27.744Z,12.50
2019-06-07T00:20:32.757Z,12.50
2019-06-07T00:22:43.833Z,12.60
2019-06-07T00:23:48.334Z,12.60
2019-06-07T00:24:53.492Z,12.70
2019-06-07T00:25:57.906Z,12.60
2019-06-07T00:27:02.931Z,12.70
2019-06-07T00:28:08.208Z,12.70
2019-06-07T00:29:15.386Z,12.70
2019-06-07T00:30:39.448Z,12.70
2019-06-07T00:31:26.798Z,12.70
2019-06-07T00:32:31.179Z,12.70
2019-06-07T00:33:36.315Z,12.80
2019-06-07T00:34:40.652Z,12.80
2019-06-07T00:35:45.885Z,12.80
2019-06-07T00:36:50.340Z,12.80
2019-06-07T00:37:55.247Z,12.80
2019-06-07T00:38:59.669Z,12.90
2019-06-07T00:40:20.626Z,12.90
2019-06-07T00:41:12.517Z,12.90
2019-06-07T00:42:20.922Z,12.90
2019-06-07T00:43:28.106Z,12.90
2019-06-07T00:44:30.410Z,13.00
2019-06-07T00:45:34.960Z,13.00
2019-06-07T00:46:39.928Z,13.00
2019-06-07T00:47:44.437Z,13.00
2019-06-07T00:48:49.352Z,13.10
2019-06-07T00:49:53.732Z,13.10
2019-06-07T00:50:58.714Z,13.10
2019-06-07T00:52:03.038Z,13.10
2019-06-07T00:53:20.005Z,13.10
2019-06-07T00:54:17.118Z,13.10
2019-06-07T00:55:27.072Z,13.10
2019-06-07T00:56:26.991Z,13.10
2019-06-07T00:57:31.867Z,13.10
2019-06-07T00:58:36.283Z,13.20
2019-06-07T00:59:41.458Z,13.20
2019-06-07T01:00:45.862Z,13.20
2019-06-07T01:01:50.936Z,13.20
2019-06-07T01:02:55.494Z,13.20
2019-06-07T01:04:00.599Z,13.20
2019-06-07T01:05:05.802Z,13.20
2019-06-07T01:06:10.887Z,13.30
2019-06-07T01:07:17.107Z,13.30
2019-06-07T01:08:25.744Z,13.30
2019-06-07T01:09:27.978Z,13.30
2019-06-07T01:10:52.484Z,13.30
2019-06-07T01:11:39.488Z,13.30
2019-06-07T01:12:44.493Z,13.30
2019-06-07T01:13:48.874Z,13.30
2019-06-07T01:14:54.268Z,13.30
2019-06-07T01:15:58.687Z,13.30
2019-06-07T01:17:28.028Z,13.30
2019-06-07T01:18:41.266Z,13.30
2019-06-07T01:19:28.100Z,13.30
2019-06-07T01:20:32.796Z,13.30
2019-06-07T01:21:37.793Z,13.30
2019-06-07T01:22:42.226Z,13.30
2019-06-07T01:24:07.953Z,13.30
2019-06-07T01:24:53.296Z,13.30
2019-06-07T01:25:58.279Z,13.30
2019-06-07T01:27:02.728Z,13.30
2019-06-07T01:28:07.679Z,13.30
2019-06-07T01:29:12.120Z,13.30
2019-06-07T01:30:18.832Z,13.30
2019-06-07T01:31:27.593Z,13.30
2019-06-07T01:32:31.734Z,13.30
2019-06-07T01:33:50.276Z,13.30
2019-06-07T01:34:43.082Z,13.30
2019-06-07T01:35:47.479Z,13.30
2019-06-07T01:36:52.417Z,13.30
2019-06-07T01:37:56.719Z,13.30
2019-06-07T01:39:01.708Z,13.30
2019-06-07T01:40:06.558Z,13.30
2019-06-07T01:41:11.552Z,13.30
2019-06-07T01:42:18.136Z,13.30
2019-06-07T01:43:28.192Z,13.30
2019-06-07T01:44:31.039Z,13.30
2019-06-07T01:45:35.654Z,13.30
2019-06-07T01:46:39.968Z,13.30
2019-06-07T01:47:44.894Z,13.30
2019-06-07T01:48:50.016Z,13.40
2019-06-07T01:49:55.045Z,13.40
2019-06-07T01:50:59.383Z,13.40
2019-06-07T01:52:04.367Z,13.40
2019-06-07T01:53:08.721Z,13.40
2019-06-07T01:54:49.407Z,13.40
2019-06-07T01:55:23.598Z,13.40
2019-06-07T01:56:28.257Z,13.40
2019-06-07T01:57:45.401Z,13.40
2019-06-07T01:58:39.172Z,13.30
2019-06-07T01:59:43.465Z,13.40
2019-06-07T02:00:48.446Z,13.40
2019-06-07T02:01:52.833Z,13.40
2019-06-07T02:02:57.797Z,13.30
2019-06-07T02:04:02.456Z,13.30
2019-06-07T02:05:09.244Z,13.30
2019-06-07T02:06:13.636Z,13.30
2019-06-07T02:07:20.393Z,13.30
2019-06-07T02:08:27.284Z,13.30
2019-06-07T02:09:32.247Z,13.30
2019-06-07T02:10:36.980Z,13.20
2019-06-07T02:11:42.006Z,13.20
2019-06-07T02:12:46.323Z,13.20
2019-06-07T02:13:51.199Z,13.20
2019-06-07T02:14:55.538Z,13.20
2019-06-07T02:16:00.500Z,13.20
2019-06-07T02:17:05.195Z,13.10
2019-06-07T02:18:10.159Z,13.10
2019-06-07T02:19:14.488Z,13.10
2019-06-07T02:20:20.338Z,13.10
2019-06-07T02:21:28.060Z,13.10
2019-06-07T02:22:32.639Z,13.00
2019-06-07T02:23:37.114Z,13.00
2019-06-07T02:24:42.180Z,12.90
2019-06-07T02:25:50.488Z,12.90
2019-06-07T02:26:53.109Z,12.90
2019-06-07T02:28:25.787Z,12.90
2019-06-07T02:29:04.164Z,12.80
2019-06-07T02:30:37.288Z,12.80
2019-06-07T02:31:16.814Z,12.70
2019-06-07T02:32:21.719Z,12.60
2019-06-07T02:33:33.507Z,12.60
2019-06-07T02:34:38.773Z,12.50
2019-06-07T02:35:41.231Z,12.50
2019-06-07T02:36:45.727Z,12.40
2019-06-07T02:37:50.726Z,12.30
2019-06-07T02:38:55.136Z,12.30
2019-06-07T02:40:00.326Z,12.20
2019-06-07T02:41:04.791Z,12.10
2019-06-07T02:42:09.901Z,12.10
2019-06-07T02:43:14.275Z,12.00
2019-06-07T02:44:19.211Z,11.90
2019-06-07T02:45:24.805Z,11.90
2019-06-07T02:46:42.516Z,11.80
2019-06-07T02:47:38.371Z,11.80
2019-06-07T02:48:43.158Z,11.70
2019-06-07T02:49:47.483Z,11.70
2019-06-07T02:50:53.311Z,11.60
2019-06-07T02:51:57.762Z,11.60
2019-06-07T02:53:02.776Z,11.60
2019-06-07T02:54:07.204Z,11.60
2019-06-07T02:55:12.882Z,11.50
2019-06-07T02:57:25.787Z,11.50
2019-06-07T02:58:34.549Z,11.50
2019-06-07T03:00:03.181Z,11.40
2019-06-07T03:01:04.153Z,11.40
2019-06-07T03:01:51.829Z,11.40
2019-06-07T03:02:56.626Z,11.40
2019-06-07T03:04:01.791Z,11.40
2019-06-07T03:05:06.406Z,11.30
2019-06-07T03:06:14.326Z,11.30
2019-06-07T03:07:19.248Z,11.30
2019-06-07T03:08:25.720Z,11.30
2019-06-07T03:09:34.324Z,11.30
2019-06-07T03:10:41.753Z,11.30
2019-06-07T03:11:47.629Z,11.30
2019-06-07T03:12:53.902Z,11.30
2019-06-07T03:14:01.239Z,11.30
2019-06-07T03:15:06.750Z,11.20
2019-06-07T03:16:12.770Z,11.20
2019-06-07T03:17:43.438Z,11.20
2019-06-07T03:19:07.107Z,11.20
2019-06-07T03:20:13.475Z,11.20
2019-06-07T03:21:21.820Z,11.20
2019-06-07T03:22:26.746Z,11.20
2019-06-07T03:23:33.835Z,11.10
2019-06-07T03:24:41.700Z,11.10
2019-06-07T03:25:47.095Z,11.10
2019-06-07T03:27:58.488Z,11.00
2019-06-07T03:29:02.989Z,11.00
2019-06-07T03:30:36.003Z,11.00
2019-06-07T03:31:14.731Z,11.00
2019-06-07T03:32:19.708Z,11.00
2019-06-07T03:33:24.083Z,10.90
2019-06-07T03:34:32.908Z,11.00
2019-06-07T03:35:37.336Z,11.00
2019-06-07T03:36:42.110Z,11.00
2019-06-07T03:37:46.512Z,10.90
2019-06-07T03:38:51.607Z,10.90
2019-06-07T03:39:55.935Z,10.90
2019-06-07T03:41:01.118Z,11.00
2019-06-07T03:42:08.267Z,11.00
2019-06-07T03:43:12.187Z,10.90
2019-06-07T03:44:16.550Z,11.00
2019-06-07T03:45:21.477Z,11.00
2019-06-07T03:46:27.243Z,11.00
2019-06-07T03:47:35.729Z,11.00
2019-06-07T03:48:41.000Z,11.00
2019-06-07T03:49:45.206Z,11.00
2019-06-07T03:51:03.910Z,11.00
2019-06-07T03:51:56.223Z,11.10
2019-06-07T03:53:00.640Z,11.10
2019-06-07T03:54:05.972Z,11.10
2019-06-07T03:55:10.451Z,11.20
2019-06-07T03:56:15.883Z,11.20
2019-06-07T03:57:20.722Z,11.20
2019-06-07T03:58:41.142Z,11.20
2019-06-07T03:59:37.068Z,11.30
2019-06-07T04:00:42.585Z,11.30
2019-06-07T04:01:44.608Z,11.30
2019-06-07T04:02:49.693Z,11.30
2019-06-07T04:03:54.083Z,11.40
2019-06-07T04:04:59.076Z,11.40
2019-06-07T04:06:03.605Z,11.50
2019-06-07T04:07:08.675Z,11.50
2019-06-07T04:08:13.838Z,11.60
2019-06-07T04:09:18.791Z,11.60
2019-06-07T04:10:44.757Z,11.60
2019-06-07T04:11:30.145Z,11.70
2019-06-07T04:12:39.146Z,11.70
2019-06-07T04:13:42.773Z,11.80
2019-06-07T04:14:47.369Z,11.70
2019-06-07T04:15:52.717Z,11.80
2019-06-07T04:16:57.170Z,11.80
2019-06-07T04:18:03.992Z,11.80
2019-06-07T04:19:08.243Z,11.90
2019-06-07T04:20:13.480Z,12.00
2019-06-07T04:21:17.856Z,12.00
2019-06-07T04:22:22.732Z,12.10
2019-06-07T04:23:29.911Z,12.10
2019-06-07T04:24:38.355Z,12.10
2019-06-07T04:25:42.505Z,12.20
2019-06-07T04:26:46.909Z,12.30
2019-06-07T04:27:51.561Z,12.30
2019-06-07T04:30:07.723Z,12.50
2019-06-07T04:31:09.521Z,12.50
2019-06-07T04:32:13.867Z,12.50
2019-06-07T04:33:18.738Z,12.60
2019-06-07T04:34:23.135Z,12.60
2019-06-07T04:35:31.447Z,12.70
2019-06-07T04:36:45.971Z,12.80
2019-06-07T04:37:43.244Z,12.80
2019-06-07T04:38:49.365Z,12.80
2019-06-07T04:39:55.219Z,12.90
2019-06-07T04:41:00.343Z,12.90
2019-06-07T04:42:05.239Z,13.00
2019-06-07T04:43:10.205Z,13.00
2019-06-07T04:44:17.422Z,13.10
2019-06-07T04:45:33.546Z,13.10
2019-06-07T04:46:32.257Z,13.20
2019-06-07T04:47:42.243Z,13.20
2019-06-07T04:48:48.479Z,13.20
2019-06-07T04:49:54.611Z,13.30
2019-06-07T04:51:00.764Z,13.30
2019-06-07T04:52:05.772Z,13.40
2019-06-07T04:53:10.867Z,13.40
2019-06-07T04:54:15.199Z,13.50
2019-06-07T04:55:20.085Z,13.50
2019-06-07T04:56:24.403Z,13.60
2019-06-07T04:57:31.881Z,13.60
2019-06-07T04:58:35.768Z,13.60
2019-06-07T05:00:10.448Z,13.70
2019-06-07T05:00:53.236Z,13.70
2019-06-07T05:01:53.547Z,13.70
2019-06-07T05:02:57.862Z,13.80
2019-06-07T05:04:02.780Z,13.80
2019-06-07T05:05:07.684Z,13.80
2019-06-07T05:06:12.602Z,13.90
2019-06-07T05:07:17.063Z,13.90
2019-06-07T05:08:28.092Z,14.00
2019-06-07T05:09:28.134Z,14.00
2019-06-07T05:10:35.151Z,14.10
2019-06-07T05:11:44.295Z,14.10
2019-06-07T05:12:45.675Z,14.20
2019-06-07T05:13:49.990Z,14.20
2019-06-07T05:14:54.867Z,14.20
2019-06-07T05:15:59.355Z,14.30
2019-06-07T05:17:04.317Z,14.30
2019-06-07T05:18:08.638Z,14.40
2019-06-07T05:19:13.526Z,14.40
2019-06-07T05:20:18.287Z,14.40
2019-06-07T05:21:23.180Z,14.40
2019-06-07T05:22:27.474Z,14.50
2019-06-07T05:24:40.736Z,14.60
2019-06-07T05:25:45.115Z,14.60
2019-06-07T05:26:49.531Z,14.60
2019-06-07T05:27:54.479Z,14.70
2019-06-07T05:28:58.804Z,14.70
2019-06-07T05:30:23.886Z,14.80
2019-06-07T05:31:09.783Z,14.80
2019-06-07T05:32:15.702Z,14.80
2019-06-07T05:33:20.083Z,14.90
2019-06-07T05:34:25.079Z,14.90
2019-06-07T05:35:33.101Z,14.90
2019-06-07T05:36:39.921Z,15.00
2019-06-07T05:37:45.970Z,15.00
2019-06-07T05:38:51.094Z,15.00
2019-06-07T05:39:55.487Z,15.00
2019-06-07T05:41:00.488Z,15.10
2019-06-07T05:42:04.937Z,15.10
2019-06-07T05:43:17.724Z,15.20
2019-06-07T05:44:22.106Z,15.20
2019-06-07T05:45:37.508Z,15.20
2019-06-07T05:46:41.914Z,15.20
2019-06-07T05:47:50.633Z,15.30
2019-06-07T05:48:52.360Z,15.20
2019-06-07T05:49:57.393Z,15.20
2019-06-07T05:51:01.749Z,15.20
2019-06-07T05:52:06.794Z,15.20
2019-06-07T05:53:11.094Z,15.20
2019-06-07T05:54:15.988Z,15.20
2019-06-07T05:55:20.279Z,15.30
2019-06-07T05:56:25.287Z,15.30
2019-06-07T05:57:29.611Z,15.30
2019-06-07T05:58:35.132Z,15.30
2019-06-07T05:59:42.121Z,15.40
2019-06-07T06:00:47.604Z,15.40
2019-06-07T06:02:02.060Z,15.50
2019-06-07T06:03:05.496Z,15.50
2019-06-07T06:04:05.133Z,15.60
2019-06-07T06:05:30.244Z,15.60
2019-06-07T06:06:16.166Z,15.70
2019-06-07T06:07:21.073Z,15.80
2019-06-07T06:08:25.584Z,15.80
2019-06-07T06:09:30.464Z,15.80
2019-06-07T06:10:37.015Z,15.90
2019-06-07T06:11:54.731Z,15.90
2019-06-07T06:12:51.702Z,15.90
2019-06-07T06:14:06.554Z,16.00
2019-06-07T06:15:00.219Z,16.00
2019-06-07T06:16:05.205Z,16.00
2019-06-07T06:17:09.639Z,16.10
2019-06-07T06:18:14.567Z,16.10
2019-06-07T06:19:18.865Z,16.10
2019-06-07T06:20:32.907Z,16.20
2019-06-07T06:21:31.066Z,16.20
2019-06-07T06:22:37.552Z,16.30
2019-06-07T06:23:43.336Z,16.30
2019-06-07T06:25:28.773Z,16.40
2019-06-07T06:25:57.424Z,16.30
2019-06-07T06:27:28.194Z,16.30
2019-06-07T06:28:12.440Z,16.40
2019-06-07T06:29:14.372Z,16.40
2019-06-07T06:30:19.348Z,16.40
2019-06-07T06:31:24.223Z,16.40
2019-06-07T06:32:42.165Z,16.40
2019-06-07T06:33:35.189Z,16.40
2019-06-07T06:34:43.505Z,16.40
2019-06-07T06:35:48.982Z,16.50
2019-06-07T06:36:52.175Z,16.50
2019-06-07T06:37:57.259Z,16.50
2019-06-07T06:39:01.567Z,16.50
2019-06-07T06:40:07.492Z,16.50
2019-06-07T06:41:16.328Z,16.60
2019-06-07T06:42:18.541Z,16.60
2019-06-07T06:43:23.324Z,16.60
2019-06-07T06:44:28.212Z,16.60
2019-06-07T06:45:32.546Z,16.60
2019-06-07T06:46:42.399Z,16.70
2019-06-07T06:47:47.213Z,16.70
2019-06-07T06:48:54.715Z,16.70
2019-06-07T06:49:56.398Z,16.70
2019-06-07T06:51:01.295Z,16.70
2019-06-07T06:52:05.741Z,16.70
2019-06-07T06:53:10.741Z,16.70
2019-06-07T06:54:15.023Z,16.70
2019-06-07T06:55:20.164Z,16.70
2019-06-07T06:56:24.532Z,16.80
2019-06-07T06:57:29.493Z,16.80
2019-06-07T06:59:18.670Z,16.90
2019-06-07T06:59:41.757Z,16.90
2019-06-07T07:00:56.894Z,17.00
2019-06-07T07:01:54.846Z,17.00
2019-06-07T07:04:12.920Z,17.10
2019-06-07T07:05:12.448Z,17.20
2019-06-07T07:06:26.413Z,17.20
2019-06-07T07:07:27.816Z,17.20
2019-06-07T07:08:32.746Z,17.20
2019-06-07T07:09:37.409Z,17.20
2019-06-07T07:10:45.730Z,17.20
2019-06-07T07:12:03.650Z,17.20
2019-06-07T07:12:56.385Z,17.20
2019-06-07T07:14:01.079Z,17.20
2019-06-07T07:15:07.199Z,17.20
2019-06-07T07:16:11.534Z,17.30
2019-06-07T07:17:16.467Z,17.30
2019-06-07T07:18:20.807Z,17.30
2019-06-07T07:19:25.749Z,17.40
2019-06-07T07:20:30.028Z,17.40
2019-06-07T07:21:34.966Z,17.40
2019-06-07T07:22:39.277Z,17.40
2019-06-07T07:24:08.229Z,17.40
2019-06-07T07:24:53.358Z,17.40
2019-06-07T07:25:59.228Z,17.50
2019-06-07T07:27:02.995Z,17.50
2019-06-07T07:28:08.119Z,17.50
2019-06-07T07:29:12.543Z,17.50
2019-06-07T07:30:37.515Z,17.60
2019-06-07T07:31:26.754Z,17.60
2019-06-07T07:32:31.705Z,17.60
2019-06-07T07:34:46.238Z,17.70
2019-06-07T07:36:14.059Z,17.70
2019-06-07T07:36:59.686Z,17.70
2019-06-07T07:38:01.308Z,17.70
2019-06-07T07:39:07.936Z,17.70
2019-06-07T07:40:55.419Z,17.70
2019-06-07T07:41:19.074Z,17.80
2019-06-07T07:42:23.430Z,17.80
2019-06-07T07:43:28.319Z,17.80
2019-06-07T07:44:32.610Z,17.90
2019-06-07T07:45:38.060Z,17.90
2019-06-07T07:46:43.344Z,17.90
2019-06-07T07:48:02.051Z,18.00
2019-06-07T07:48:56.271Z,18.00
2019-06-07T07:50:01.306Z,18.00
2019-06-07T07:51:05.743Z,18.10
2019-06-07T07:52:10.946Z,18.10
2019-06-07T07:53:15.264Z,18.10
2019-06-07T07:54:20.202Z,18.10
2019-06-07T07:55:24.729Z,18.10
2019-06-07T07:56:29.699Z,18.20
2019-06-07T07:57:33.987Z,18.20
2019-06-07T07:58:38.843Z,18.20
2019-06-07T08:00:00.484Z,18.20
2019-06-07T08:00:54.947Z,18.20
2019-06-07T08:01:56.132Z,18.30
2019-06-07T08:03:04.301Z,18.30
2019-06-07T08:04:07.219Z,18.40
2019-06-07T08:05:22.756Z,18.40
2019-06-07T08:06:18.163Z,18.50
2019-06-07T08:07:23.026Z,18.50
2019-06-07T08:08:27.335Z,18.50
2019-06-07T08:09:32.298Z,18.50
2019-06-07T08:10:36.683Z,18.50
2019-06-07T08:11:41.666Z,18.50
2019-06-07T08:13:09.041Z,18.50
2019-06-07T08:13:53.049Z,18.50
2019-06-07T08:15:03.293Z,18.50
2019-06-07T08:16:11.784Z,18.50
2019-06-07T08:17:11.428Z,18.60
2019-06-07T08:18:16.380Z,18.60
2019-06-07T08:19:20.712Z,18.60
2019-06-07T08:20:25.579Z,18.60
2019-06-07T08:21:29.894Z,18.50
2019-06-07T08:22:34.778Z,18.60
2019-06-07T08:23:39.126Z,18.60
2019-06-07T08:24:44.019Z,18.60
2019-06-07T08:25:49.168Z,18.60
2019-06-07T08:27:17.672Z,18.70
2019-06-07T08:28:00.323Z,18.70
2019-06-07T08:29:05.455Z,18.70
2019-06-07T08:30:46.467Z,18.70
2019-06-07T08:31:17.666Z,18.70
2019-06-07T08:32:22.047Z,18.70
2019-06-07T08:33:27.224Z,18.80
2019-06-07T08:34:31.692Z,18.80
2019-06-07T08:36:06.020Z,18.80
2019-06-07T08:36:42.888Z,18.70
2019-06-07T08:38:57.869Z,18.70
2019-06-07T08:40:01.826Z,18.70
2019-06-07T08:41:12.137Z,18.70
2019-06-07T08:42:18.002Z,18.60
2019-06-07T08:43:21.035Z,18.60
2019-06-07T08:44:25.933Z,18.60
2019-06-07T08:45:30.440Z,18.60
2019-06-07T08:46:35.406Z,18.60
2019-06-07T08:47:39.860Z,18.70
2019-06-07T08:48:44.868Z,18.70
2019-06-07T08:49:50.963Z,18.70
2019-06-07T08:51:00.836Z,18.80
2019-06-07T08:52:09.827Z,18.80
2019-06-07T08:53:12.077Z,18.80
2019-06-07T08:54:22.901Z,18.90
2019-06-07T08:55:21.680Z,18.90
2019-06-07T08:56:25.980Z,18.90
2019-06-07T08:57:30.858Z,18.90
2019-06-07T08:58:35.163Z,18.90
2019-06-07T08:59:40.052Z,18.90
2019-06-07T09:00:47.183Z,19.00
2019-06-07T09:01:53.705Z,18.90
2019-06-07T09:02:58.883Z,19.00
2019-06-07T09:04:09.879Z,18.90
2019-06-07T09:05:12.454Z,18.90
2019-06-07T09:06:59.513Z,18.90
2019-06-07T09:07:22.523Z,18.90
2019-06-07T09:08:30.818Z,18.90
2019-06-07T09:09:33.467Z,18.90
2019-06-07T09:10:38.360Z,19.00
2019-06-07T09:11:42.652Z,19.00
2019-06-07T09:12:47.531Z,19.10
2019-06-07T09:13:54.533Z,19.10
2019-06-07T09:15:12.119Z,19.20
2019-06-07T09:16:08.214Z,19.20
2019-06-07T09:17:12.291Z,19.20
2019-06-07T09:18:41.286Z,19.30
2019-06-07T09:19:23.873Z,19.30
2019-06-07T09:20:42.742Z,19.40
2019-06-07T09:21:47.631Z,19.40
2019-06-07T09:22:52.066Z,19.40
2019-06-07T09:24:00.311Z,19.40
2019-06-07T09:25:12.248Z,19.50
2019-06-07T09:26:16.635Z,19.50
2019-06-07T09:27:16.307Z,19.50
2019-06-07T09:28:21.755Z,19.60
2019-06-07T09:29:26.178Z,19.60
2019-06-07T09:30:42.186Z,19.60
2019-06-07T09:31:53.129Z,19.60
2019-06-07T09:32:53.023Z,19.70
2019-06-07T09:34:04.159Z,19.70
2019-06-07T09:35:10.523Z,19.70
2019-06-07T09:36:13.141Z,19.70
2019-06-07T09:38:03.817Z,19.80
2019-06-07T09:38:26.045Z,19.80
2019-06-07T09:39:29.733Z,19.90
2019-06-07T09:40:34.091Z,20.00
2019-06-07T09:41:47.377Z,20.00
2019-06-07T09:42:45.031Z,20.00
2019-06-07T09:44:21.325Z,20.10
2019-06-07T09:44:57.354Z,20.10
2019-06-07T09:46:11.061Z,20.10
2019-06-07T09:47:30.169Z,20.20
2019-06-07T09:48:23.937Z,20.20
2019-06-07T09:49:32.000Z,20.30
2019-06-07T09:50:28.087Z,20.30
2019-06-07T09:51:32.393Z,20.30
2019-06-07T09:52:56.904Z,20.30
2019-06-07T09:53:43.311Z,20.30
2019-06-07T09:55:12.047Z,20.30
2019-06-07T09:55:54.250Z,20.40
2019-06-07T09:57:02.653Z,20.40
2019-06-07T09:58:47.831Z,20.40
2019-06-07T09:59:12.870Z,20.40
2019-06-07T10:01:24.609Z,20.40
2019-06-07T10:02:29.016Z,20.40
2019-06-07T10:03:34.045Z,20.40
2019-06-07T10:04:38.399Z,20.40
2019-06-07T10:05:43.347Z,20.40
2019-06-07T10:06:47.660Z,20.40
2019-06-07T10:08:04.120Z,20.40
2019-06-07T10:10:08.194Z,20.40
2019-06-07T10:10:25.279Z,20.40
2019-06-07T10:11:11.720Z,20.40
2019-06-07T10:12:16.591Z,20.50
2019-06-07T10:13:20.996Z,20.50
2019-06-07T10:14:25.875Z,20.60
2019-06-07T10:15:30.222Z,20.70
2019-06-07T10:16:46.203Z,20.70
2019-06-07T10:17:41.091Z,20.80
2019-06-07T10:18:45.953Z,20.80
2019-06-07T10:19:50.305Z,20.90
2019-06-07T10:20:55.235Z,20.90
2019-06-07T10:21:59.690Z,21.00
2019-06-07T10:23:05.760Z,21.00
2019-06-07T10:24:10.292Z,21.10
2019-06-07T10:25:15.384Z,21.10
2019-06-07T10:26:19.666Z,21.20
2019-06-07T10:27:24.570Z,21.20
2019-06-07T10:28:28.973Z,21.20
2019-06-07T10:29:33.995Z,21.20
2019-06-07T10:30:38.305Z,21.30
2019-06-07T10:31:43.191Z,21.40
2019-06-07T10:32:47.496Z,21.50
2019-06-07T10:33:52.379Z,21.50
2019-06-07T10:34:56.735Z,21.50
2019-06-07T10:36:02.474Z,21.50
2019-06-07T10:37:09.336Z,21.50
2019-06-07T10:38:13.548Z,21.50
2019-06-07T10:39:17.843Z,21.50
2019-06-07T10:40:23.182Z,21.50
2019-06-07T10:41:27.472Z,21.50
2019-06-07T10:42:32.449Z,21.60
2019-06-07T10:43:36.748Z,21.60
2019-06-07T10:44:41.699Z,21.70
2019-06-07T10:45:45.991Z,21.70
2019-06-07T10:46:50.877Z,21.70
2019-06-07T10:47:55.524Z,21.70
2019-06-07T10:49:01.590Z,21.70
2019-06-07T10:50:08.067Z,21.80
2019-06-07T10:51:14.784Z,21.80
2019-06-07T10:52:19.258Z,21.80
2019-06-07T10:53:24.152Z,21.90
2019-06-07T10:54:30.820Z,21.90
2019-06-07T10:55:35.242Z,21.90
2019-06-07T10:56:39.530Z,22.00
2019-06-07T10:57:44.409Z,22.00
2019-06-07T10:58:48.744Z,22.10
2019-06-07T10:59:54.166Z,22.10
2019-06-07T11:00:59.430Z,22.10
2019-06-07T11:02:05.734Z,22.10
2019-06-07T11:03:10.123Z,22.10
2019-06-07T11:04:15.003Z,22.10
2019-06-07T11:05:19.540Z,22.20
2019-06-07T11:06:24.484Z,22.20
2019-06-07T11:07:28.777Z,22.20
2019-06-07T11:08:33.684Z,22.30
2019-06-07T11:09:38.018Z,22.40
2019-06-07T11:10:42.895Z,22.50
2019-06-07T11:11:47.184Z,22.60
2019-06-07T11:12:52.124Z,22.70
2019-06-07T11:13:56.454Z,22.80
2019-06-07T11:15:01.401Z,23.00
2019-06-07T11:16:06.855Z,23.10
2019-06-07T11:17:13.284Z,23.20
2019-06-07T11:18:18.892Z,23.40
2019-06-07T11:19:24.013Z,23.60
2019-06-07T11:20:28.367Z,23.80
2019-06-07T11:21:34.111Z,24.10
2019-06-07T11:22:38.497Z,24.50
2019-06-07T11:23:43.399Z,25.00
2019-06-07T11:24:47.691Z,25.40
2019-06-07T11:25:52.579Z,25.80
2019-06-07T11:26:56.890Z,26.30
2019-06-07T11:28:01.938Z,26.80
2019-06-07T11:29:06.644Z,27.30
2019-06-07T11:30:12.570Z,27.80
2019-06-07T11:31:17.009Z,28.20
2019-06-07T11:32:22.060Z,28.70
2019-06-07T11:33:26.425Z,29.20
2019-06-07T11:34:31.355Z,29.60
2019-06-07T11:35:35.681Z,30.00
2019-06-07T11:36:40.651Z,30.50
2019-06-07T11:37:44.926Z,31.00
2019-06-07T11:38:49.847Z,31.40
2019-06-07T11:39:54.149Z,31.70
2019-06-07T11:40:59.026Z,32.20
2019-06-07T11:42:03.473Z,32.70
2019-06-07T11:43:10.652Z,33.20
2019-06-07T11:44:15.205Z,33.60
2019-06-07T11:45:20.556Z,34.00
2019-06-07T11:46:24.848Z,34.40
2019-06-07T11:47:29.739Z,34.60
2019-06-07T11:48:34.102Z,34.80
2019-06-07T11:49:38.991Z,35.00
2019-06-07T11:50:43.378Z,35.20
2019-06-07T11:51:48.303Z,35.30
2019-06-07T11:52:52.595Z,35.40
2019-06-07T11:53:57.464Z,35.70
2019-06-07T11:55:01.791Z,36.00
2019-06-07T11:56:07.871Z,36.40
2019-06-07T11:57:13.022Z,36.90
2019-06-07T11:58:21.622Z,37.20
2019-06-07T11:59:24.194Z,37.50
2019-06-07T12:00:29.210Z,37.60
2019-06-07T12:01:36.638Z,37.90
2019-06-07T12:02:40.299Z,38.00
2019-06-07T12:03:44.752Z,38.10
2019-06-07T12:04:49.781Z,38.30
2019-06-07T12:05:54.166Z,38.80
2019-06-07T12:06:59.644Z,39.20
2019-06-07T12:08:04.326Z,39.80
2019-06-07T12:09:10.651Z,40.20
2019-06-07T12:10:19.106Z,40.70
2019-06-07T12:11:22.197Z,41.00
2019-06-07T12:12:26.496Z,41.60
2019-06-07T12:13:31.393Z,41.90
2019-06-07T12:14:35.918Z,42.30
2019-06-07T12:15:40.813Z,42.50
2019-06-07T12:16:45.168Z,42.70
2019-06-07T12:17:50.145Z,43.00
2019-06-07T12:18:54.445Z,43.20
2019-06-07T12:19:59.357Z,43.60
2019-06-07T12:21:03.661Z,43.90
2019-06-07T12:22:09.838Z,43.90
2019-06-07T12:23:20.049Z,43.80
2019-06-07T12:24:21.241Z,43.70
2019-06-07T12:25:25.699Z,43.80
2019-06-07T12:26:30.555Z,44.00
2019-06-07T12:27:34.877Z,44.20
2019-06-07T12:28:39.741Z,44.30
2019-06-07T12:29:44.114Z,44.20
2019-06-07T12:30:48.994Z,44.40
2019-06-07T12:31:53.336Z,44.60
2019-06-07T12:32:58.188Z,44.60
2019-06-07T12:34:02.499Z,44.80
2019-06-07T12:35:08.078Z,44.90
2019-06-07T12:36:13.552Z,44.80
2019-06-07T12:37:21.067Z,44.80
2019-06-07T12:38:24.572Z,44.90
2019-06-07T12:39:29.453Z,45.00
2019-06-07T12:40:33.751Z,45.00
2019-06-07T12:41:38.628Z,44.90
2019-06-07T12:42:42.931Z,44.90
2019-06-07T12:43:47.890Z,45.00
2019-06-07T12:44:52.185Z,45.00
2019-06-07T12:45:57.059Z,44.90
2019-06-07T12:47:01.336Z,45.00
2019-06-07T12:48:06.447Z,45.20
2019-06-07T12:49:10.832Z,45.40
2019-06-07T12:50:17.447Z,45.60
2019-06-07T12:51:21.910Z,45.40
2019-06-07T12:52:26.775Z,45.50
2019-06-07T12:53:31.069Z,45.70
2019-06-07T12:54:35.942Z,45.90
2019-06-07T12:55:40.232Z,45.90
2019-06-07T12:56:45.539Z,45.90
2019-06-07T12:57:49.546Z,45.90
2019-06-07T12:58:54.435Z,46.00
2019-06-07T12:59:58.711Z,45.90
2019-06-07T13:01:03.581Z,46.00
2019-06-07T13:02:08.024Z,45.90
2019-06-07T13:03:14.273Z,45.80
2019-06-07T13:04:18.679Z,45.70
2019-06-07T13:05:23.925Z,45.60
2019-06-07T13:06:28.336Z,45.70
2019-06-07T13:07:33.242Z,45.80
2019-06-07T13:08:37.512Z,45.80
2019-06-07T13:09:42.401Z,45.70
2019-06-07T13:10:46.840Z,45.50
2019-06-07T13:11:51.863Z,45.20
2019-06-07T13:12:56.206Z,45.20
2019-06-07T13:14:01.075Z,45.30
2019-06-07T13:15:06.852Z,45.10
2019-06-07T13:16:11.858Z,44.90
2019-06-07T13:17:16.181Z,44.80
2019-06-07T13:18:22.806Z,44.80
2019-06-07T13:19:28.495Z,44.80
2019-06-07T13:20:33.636Z,44.80
2019-06-07T13:21:38.233Z,44.80
2019-06-07T13:22:43.109Z,44.80
2019-06-07T13:23:47.436Z,44.90
2019-06-07T13:24:52.315Z,44.80
2019-06-07T13:25:56.648Z,44.90
2019-06-07T13:27:01.735Z,44.70
2019-06-07T13:28:06.093Z,44.70
2019-06-07T13:29:11.008Z,44.50
2019-06-07T13:30:18.822Z,44.20
2019-06-07T13:31:25.243Z,44.40
2019-06-07T13:32:29.701Z,44.40
2019-06-07T13:33:38.681Z,44.40
2019-06-07T13:34:40.616Z,44.80
2019-06-07T13:35:46.438Z,45.00
2019-06-07T13:36:50.739Z,45.00
2019-06-07T13:37:59.436Z,45.20
2019-06-07T13:39:01.820Z,45.20
2019-06-07T13:40:07.384Z,45.30
2019-06-07T13:41:11.746Z,45.20
2019-06-07T13:42:16.696Z,45.30
2019-06-07T13:43:21.443Z,45.30
2019-06-07T13:44:26.478Z,45.30
2019-06-07T13:45:30.932Z,45.40
2019-06-07T13:46:35.862Z,45.40
2019-06-07T13:47:40.165Z,45.40
2019-06-07T13:48:44.819Z,45.60
2019-06-07T13:49:49.220Z,45.40
2019-06-07T13:50:54.188Z,45.50
2019-06-07T13:51:58.756Z,45.50
2019-06-07T13:53:03.848Z,45.60
2019-06-07T13:54:08.183Z,45.60
2019-06-07T13:55:13.331Z,45.60
2019-06-07T13:56:17.812Z,45.60
2019-06-07T13:57:24.264Z,45.60
2019-06-07T13:58:28.840Z,45.40
2019-06-07T13:59:33.719Z,45.40
2019-06-07T14:00:38.113Z,45.50
2019-06-07T14:01:45.161Z,45.50
2019-06-07T14:02:49.448Z,45.60
2019-06-07T14:03:53.739Z,45.60
2019-06-07T14:04:58.041Z,45.60
2019-06-07T14:06:03.074Z,45.60
2019-06-07T14:07:07.342Z,45.60
2019-06-07T14:08:12.230Z,45.60
2019-06-07T14:09:16.559Z,45.70
2019-06-07T14:10:21.719Z,45.90
2019-06-07T14:11:26.176Z,45.80
2019-06-07T14:12:31.051Z,45.60